Time;durP1;ratioP1;P1;durP2;ratioP2;P2;SDS_P1;SDS_P2;PMS_P1;PMS_P2;Temp;Humidity;BMP_temperature;BMP_pressure;BME280_temperature;BME280_humidity;BME280_pressure;Samples;Min_cycle;Max_cycle;Signal;HPM_P1;HPM_P2
2021/03/20 00:01:19;;;;;;;17.98;11.52;;;3.70;70.30;;;;;;5035607;28;20033;-72
2021/03/20 00:03:45;;;;;;;19.60;11.52;;;3.70;70.90;;;;;;5026464;28;20030;-74
2021/03/20 00:06:12;;;;;;;22.00;12.50;;;3.60;71.00;;;;;;5032030;28;20400;-74
2021/03/20 00:08:38;;;;;;;18.00;11.85;;;3.60;71.20;;;;;;5034123;28;20021;-72
2021/03/20 00:11:04;;;;;;;18.65;12.32;;;3.60;71.40;;;;;;5033205;28;20592;-74
2021/03/20 00:13:31;;;;;;;21.67;12.65;;;3.60;71.30;;;;;;5033789;28;20053;-72
2021/03/20 00:15:58;;;;;;;18.27;12.27;;;3.50;71.70;;;;;;5022012;28;20026;-72
2021/03/20 00:18:25;;;;;;;18.15;12.32;;;3.50;72.20;;;;;;5035375;28;20033;-72
2021/03/20 00:20:54;;;;;;;18.45;12.32;;;3.40;72.20;;;;;;5035438;28;20021;-72
2021/03/20 00:23:20;;;;;;;20.95;12.73;;;3.40;72.90;;;;;;5030769;28;20036;-74
2021/03/20 00:25:46;;;;;;;20.25;12.13;;;3.40;73.10;;;;;;5034617;28;20030;-74
2021/03/20 00:28:14;;;;;;;21.70;12.35;;;3.40;73.20;;;;;;5033544;28;20025;-72
2021/03/20 00:30:40;;;;;;;19.45;12.85;;;3.40;73.10;;;;;;5035112;28;20028;-72
2021/03/20 00:33:07;;;;;;;20.75;12.98;;;3.40;73.20;;;;;;5035207;28;20039;-73
2021/03/20 00:35:33;;;;;;;24.30;15.73;;;3.30;73.50;;;;;;5033604;28;20030;-72
2021/03/20 00:37:59;;;;;;;34.28;18.80;;;3.30;74.10;;;;;;5034166;28;20033;-72
2021/03/20 00:40:30;;;;;;;37.28;23.27;;;3.30;73.60;;;;;;5035111;28;20025;-71
2021/03/20 00:42:56;;;;;;;38.95;25.98;;;3.20;74.00;;;;;;5033548;28;20091;-72
2021/03/20 00:45:25;;;;;;;42.65;30.60;;;3.20;74.20;;;;;;5021743;28;20053;-72
2021/03/20 00:47:51;;;;;;;44.53;29.65;;;3.20;75.00;;;;;;5026760;28;20033;-72
2021/03/20 00:50:20;;;;;;;41.78;28.60;;;3.10;75.90;;;;;;5034732;28;20392;-72
2021/03/20 00:52:46;;;;;;;49.92;34.17;;;3.00;76.40;;;;;;5025564;28;20033;-74
2021/03/20 00:55:13;;;;;;;55.42;37.20;;;3.00;76.50;;;;;;5029701;28;20029;-72
2021/03/20 00:57:39;;;;;;;58.70;40.83;;;2.90;76.50;;;;;;5034210;28;20531;-74
2021/03/20 01:00:15;;;;;;;62.33;43.40;;;2.80;76.80;;;;;;5034113;28;20382;-72
2021/03/20 01:02:41;;;;;;;67.93;47.00;;;2.80;77.30;;;;;;5033933;28;20519;-72
2021/03/20 01:05:09;;;;;;;62.03;43.67;;;2.70;77.30;;;;;;5025335;28;20065;-74
2021/03/20 01:07:34;;;;;;;56.58;38.67;;;2.70;78.00;;;;;;5031509;28;20101;-74
2021/03/20 01:10:00;;;;;;;56.63;39.55;;;2.60;77.90;;;;;;5034465;28;20053;-72
2021/03/20 01:12:26;;;;;;;49.08;33.63;;;2.60;78.30;;;;;;5027835;28;20164;-73
2021/03/20 01:14:51;;;;;;;35.95;23.92;;;2.60;78.70;;;;;;5024212;28;20049;-74
2021/03/20 01:17:17;;;;;;;32.90;20.45;;;2.60;79.00;;;;;;5031130;28;20026;-73
2021/03/20 01:19:43;;;;;;;30.33;19.13;;;2.60;79.10;;;;;;5034427;28;20018;-71
2021/03/20 01:22:08;;;;;;;32.53;17.90;;;2.50;78.70;;;;;;5030202;28;20044;-71
2021/03/20 01:24:34;;;;;;;28.15;15.80;;;2.50;79.00;;;;;;5033575;28;20424;-72
2021/03/20 01:27:00;;;;;;;26.20;15.38;;;2.50;78.60;;;;;;5032697;28;20021;-72
2021/03/20 01:29:25;;;;;;;27.88;16.25;;;2.50;78.60;;;;;;5023974;28;20399;-73
2021/03/20 01:31:53;;;;;;;23.08;14.63;;;2.50;79.10;;;;;;5034011;28;20021;-74
2021/03/20 01:34:19;;;;;;;23.88;15.05;;;2.50;78.80;;;;;;5034114;28;20024;-74
2021/03/20 01:36:44;;;;;;;25.15;15.15;;;2.50;79.20;;;;;;5032431;28;20475;-74
2021/03/20 01:39:10;;;;;;;24.40;15.02;;;2.50;79.10;;;;;;5033916;28;20029;-74
2021/03/20 01:41:41;;;;;;;27.05;14.77;;;2.50;79.20;;;;;;5032775;28;20041;-74
2021/03/20 01:44:07;;;;;;;25.25;14.98;;;2.40;79.10;;;;;;5028370;28;20121;-74
2021/03/20 01:46:54;;;;;;;23.58;14.57;;;2.40;79.70;;;;;;5024878;28;20475;-72
2021/03/20 01:49:34;;;;;;;21.77;13.95;;;2.30;79.60;;;;;;5033834;28;20445;-72
2021/03/20 01:52:05;;;;;;;23.30;14.50;;;2.30;79.60;;;;;;5006206;28;20033;-72
2021/03/20 01:54:52;;;;;;;23.40;14.05;;;2.30;80.10;;;;;;5023311;28;20025;-74
2021/03/20 01:57:28;;;;;;;21.02;14.02;;;2.30;80.90;;;;;;5032823;28;20025;-74
2021/03/20 01:59:56;;;;;;;22.90;14.25;;;2.30;80.80;;;;;;5032039;28;20361;-71
2021/03/20 02:02:22;;;;;;;23.27;14.23;;;2.30;80.60;;;;;;5033521;28;20560;-72
2021/03/20 02:04:48;;;;;;;20.20;13.87;;;2.30;81.10;;;;;;5007719;28;20044;-74
2021/03/20 02:07:13;;;;;;;21.23;13.40;;;2.30;81.10;;;;;;5029533;28;20025;-72
2021/03/20 02:09:39;;;;;;;26.15;14.23;;;2.30;81.20;;;;;;5033312;28;20033;-71
2021/03/20 02:12:08;;;;;;;22.30;14.05;;;2.20;81.90;;;;;;5030821;28;20022;-72
2021/03/20 02:14:49;;;;;;;27.02;14.32;;;2.20;81.90;;;;;;5024356;28;20392;-72
2021/03/20 02:17:48;;;;;;;23.85;13.70;;;2.20;81.80;;;;;;5029058;28;20029;-72
2021/03/20 02:20:25;;;;;;;20.65;13.13;;;2.20;82.30;;;;;;5021907;28;20033;-72
2021/03/20 02:23:09;;;;;;;23.23;13.98;;;2.20;82.10;;;;;;5021959;28;20028;-73
2021/03/20 02:26:02;;;;;;;20.48;12.68;;;2.10;82.50;;;;;;5029584;28;20398;-71
2021/03/20 02:28:59;;;;;;;18.67;12.80;;;2.10;82.40;;;;;;5012193;28;20030;-72
2021/03/20 02:32:01;;;;;;;22.92;13.00;;;2.10;82.50;;;;;;5032973;28;20025;-72
2021/03/20 02:34:49;;;;;;;22.17;13.35;;;2.10;82.80;;;;;;5032828;28;20025;-71
2021/03/20 02:37:33;;;;;;;18.30;11.95;;;2.10;83.50;;;;;;5032452;28;20049;-72
2021/03/20 02:40:07;;;;;;;20.40;12.82;;;2.00;83.20;;;;;;5032475;28;20017;-73
2021/03/20 02:42:50;;;;;;;19.08;12.50;;;2.00;83.20;;;;;;5031830;28;20029;-71
2021/03/20 02:45:25;;;;;;;21.10;13.27;;;2.00;83.70;;;;;;5024241;28;20049;-73
2021/03/20 02:47:54;;;;;;;23.42;12.57;;;2.00;84.10;;;;;;5026341;28;20116;-71
2021/03/20 02:50:26;;;;;;;16.17;11.40;;;2.00;84.40;;;;;;5032253;28;20092;-71
2021/03/20 02:53:02;;;;;;;19.52;12.80;;;2.00;84.30;;;;;;5021708;28;20018;-73
2021/03/20 02:55:33;;;;;;;16.80;12.05;;;2.00;84.20;;;;;;5026846;28;20097;-73
2021/03/20 02:58:22;;;;;;;19.02;11.77;;;2.00;83.90;;;;;;5031934;28;20063;-71
2021/03/20 03:00:52;;;;;;;16.55;11.55;;;2.00;84.20;;;;;;5032548;28;20087;-73
2021/03/20 03:03:20;;;;;;;15.75;10.88;;;2.00;84.40;;;;;;5025916;28;20109;-74
2021/03/20 03:06:20;;;;;;;18.77;11.15;;;2.00;84.00;;;;;;5025469;28;20021;-74
2021/03/20 03:08:50;;;;;;;14.90;10.55;;;2.00;84.00;;;;;;5025771;28;20026;-72
2021/03/20 03:11:36;;;;;;;15.07;9.98;;;2.00;83.60;;;;;;5030391;28;20034;-74
2021/03/20 03:14:09;;;;;;;14.13;10.02;;;2.00;83.70;;;;;;5027385;28;20493;-73
2021/03/20 03:16:51;;;;;;;18.20;11.35;;;2.00;83.70;;;;;;5022935;28;20428;-71
2021/03/20 03:19:25;;;;;;;15.07;9.68;;;2.00;84.00;;;;;;5025751;28;20439;-71
2021/03/20 03:21:55;;;;;;;15.45;10.15;;;2.00;83.90;;;;;;5027773;28;20142;-72
2021/03/20 03:24:25;;;;;;;15.75;10.35;;;2.00;84.00;;;;;;5030524;28;20038;-72
2021/03/20 03:27:02;;;;;;;18.02;10.48;;;1.90;84.40;;;;;;5031707;28;20079;-73
2021/03/20 03:29:31;;;;;;;15.20;10.05;;;1.90;84.90;;;;;;5011782;28;20052;-71
2021/03/20 03:32:07;;;;;;;16.13;9.88;;;1.80;84.90;;;;;;5032058;28;20124;-73
2021/03/20 03:34:49;;;;;;;15.20;9.95;;;1.80;85.00;;;;;;5032260;28;20088;-73
2021/03/20 03:37:36;;;;;;;15.90;10.40;;;1.80;84.90;;;;;;5030125;28;20539;-71
2021/03/20 03:40:13;;;;;;;14.85;10.25;;;1.70;85.50;;;;;;5032069;28;20029;-73
2021/03/20 03:42:39;;;;;;;14.80;9.90;;;1.70;85.60;;;;;;5032191;28;20032;-71
2021/03/20 03:45:11;;;;;;;18.05;9.80;;;1.60;85.80;;;;;;5019112;28;20065;-71
2021/03/20 03:47:37;;;;;;;15.38;9.75;;;1.60;85.90;;;;;;5022778;28;20108;-72
2021/03/20 03:50:09;;;;;;;14.65;9.73;;;1.50;86.50;;;;;;5031907;28;20561;-73
2021/03/20 03:52:35;;;;;;;14.75;9.45;;;1.50;86.40;;;;;;5022173;28;20018;-73
2021/03/20 03:55:01;;;;;;;12.65;9.57;;;1.50;86.50;;;;;;5025650;28;20060;-71
2021/03/20 03:57:45;;;;;;;15.73;9.70;;;1.50;86.80;;;;;;5031568;28;20077;-73
2021/03/20 04:00:20;;;;;;;16.10;8.88;;;1.50;86.50;;;;;;5031939;28;20111;-72
2021/03/20 04:03:16;;;;;;;16.65;9.48;;;1.40;86.40;;;;;;5045947;28;20033;-71
2021/03/20 04:06:01;;;;;;;13.10;9.00;;;1.40;86.60;;;;;;5024339;28;20087;-73
2021/03/20 04:08:27;;;;;;;13.63;8.43;;;1.40;86.40;;;;;;5022912;28;20120;-73
2021/03/20 04:11:08;;;;;;;13.68;9.00;;;1.40;87.00;;;;;;5029434;28;20105;-74
2021/03/20 04:13:38;;;;;;;13.30;8.45;;;1.40;86.60;;;;;;5029657;28;20045;-73
2021/03/20 04:16:14;;;;;;;13.38;9.35;;;1.40;86.80;;;;;;5015654;28;20156;-73
2021/03/20 04:19:04;;;;;;;12.77;8.73;;;1.30;86.90;;;;;;5031672;28;20022;-73
2021/03/20 04:21:34;;;;;;;15.18;8.88;;;1.30;87.30;;;;;;5031437;28;20128;-73
2021/03/20 04:24:20;;;;;;;16.15;9.70;;;1.30;87.20;;;;;;5016048;28;20471;-71
2021/03/20 04:27:15;;;;;;;13.35;9.52;;;1.20;87.20;;;;;;5030767;28;20037;-73
2021/03/20 04:29:52;;;;;;;14.63;8.82;;;1.20;87.10;;;;;;5029912;28;20025;-73
2021/03/20 04:32:49;;;;;;;13.45;8.63;;;1.20;87.20;;;;;;5034782;28;20079;-73
2021/03/20 04:35:28;;;;;;;13.43;8.77;;;1.20;87.50;;;;;;5034507;28;20042;-73
2021/03/20 04:37:56;;;;;;;11.48;8.02;;;1.20;87.60;;;;;;5035317;28;20456;-71
2021/03/20 04:40:24;;;;;;;14.15;9.60;;;1.10;87.50;;;;;;5029666;28;20088;-73
2021/03/20 04:42:50;;;;;;;15.73;8.93;;;1.10;87.50;;;;;;5035118;28;20127;-71
2021/03/20 04:45:38;;;;;;;13.38;8.73;;;1.20;87.50;;;;;;5020799;28;20560;-73
2021/03/20 04:48:18;;;;;;;12.40;9.15;;;1.10;87.30;;;;;;5029165;28;20035;-73
2021/03/20 04:50:47;;;;;;;13.10;8.98;;;1.10;87.50;;;;;;5034440;28;20032;-71
2021/03/20 04:53:15;;;;;;;14.43;9.40;;;1.10;87.20;;;;;;5026374;28;20029;-71
2021/03/20 04:55:42;;;;;;;15.82;9.32;;;1.20;87.30;;;;;;5029340;28;20034;-73
2021/03/20 04:58:13;;;;;;;16.15;9.93;;;1.10;87.50;;;;;;5033024;28;20032;-73
2021/03/20 05:00:51;;;;;;;14.90;9.48;;;1.10;87.60;;;;;;5034134;28;20033;-71
2021/03/20 05:03:37;;;;;;;11.65;9.02;;;1.10;87.50;;;;;;5028058;28;20037;-73
2021/03/20 05:06:07;;;;;;;16.20;9.73;;;1.10;87.70;;;;;;5029205;28;20056;-71
2021/03/20 05:08:41;;;;;;;13.48;9.20;;;1.00;87.90;;;;;;5034619;28;20033;-73
2021/03/20 05:11:22;;;;;;;14.38;9.25;;;1.00;88.00;;;;;;5031236;28;20080;-71
2021/03/20 05:13:59;;;;;;;15.25;8.95;;;1.00;87.90;;;;;;5028763;28;20026;-73
2021/03/20 05:16:36;;;;;;;14.65;10.07;;;1.00;87.90;;;;;;5013241;28;20037;-73
2021/03/20 05:19:03;;;;;;;17.00;9.82;;;1.00;87.60;;;;;;5034037;28;20033;-71
2021/03/20 05:21:32;;;;;;;15.48;9.85;;;1.00;88.00;;;;;;5034244;28;20034;-71
2021/03/20 05:23:59;;;;;;;14.68;10.10;;;1.00;87.90;;;;;;5029089;28;20037;-73
2021/03/20 05:26:26;;;;;;;15.48;9.30;;;1.00;88.10;;;;;;5033920;28;20025;-73
2021/03/20 05:28:51;;;;;;;14.88;9.85;;;1.00;88.00;;;;;;5023616;28;20044;-71
2021/03/20 05:31:17;;;;;;;15.05;9.75;;;1.00;87.90;;;;;;5032723;28;20025;-73
2021/03/20 05:33:46;;;;;;;17.52;10.38;;;0.90;88.20;;;;;;5033787;28;20025;-71
2021/03/20 05:36:12;;;;;;;15.57;9.68;;;1.00;88.20;;;;;;5033962;28;20392;-74
2021/03/20 05:38:38;;;;;;;15.50;10.32;;;0.90;87.90;;;;;;5033718;28;20030;-73
2021/03/20 05:41:31;;;;;;;13.75;10.23;;;0.90;88.00;;;;;;5033733;28;20047;-73
2021/03/20 05:44:06;;;;;;;14.50;10.68;;;0.90;88.40;;;;;;5029015;28;20037;-71
2021/03/20 05:46:34;;;;;;;16.48;9.82;;;0.90;88.10;;;;;;5022189;28;20077;-71
2021/03/20 05:49:18;;;;;;;16.50;10.68;;;0.90;88.40;;;;;;5033781;28;20032;-73
2021/03/20 05:52:07;;;;;;;16.17;10.38;;;0.90;88.60;;;;;;5030804;28;20025;-73
2021/03/20 05:54:43;;;;;;;17.48;10.40;;;0.90;88.30;;;;;;5016735;28;20061;-71
2021/03/20 05:57:30;;;;;;;16.50;10.98;;;0.90;88.60;;;;;;5015563;28;20025;-71
2021/03/20 06:00:25;;;;;;;17.80;10.38;;;0.80;88.80;;;;;;5033404;28;20037;-71
2021/03/20 06:02:56;;;;;;;17.00;11.07;;;0.80;88.80;;;;;;5032611;28;20093;-73
2021/03/20 06:05:45;;;;;;;16.65;11.32;;;0.70;88.90;;;;;;5033244;28;20116;-71
2021/03/20 06:08:17;;;;;;;16.33;11.13;;;0.70;89.60;;;;;;5027413;28;20358;-73
2021/03/20 06:10:53;;;;;;;18.95;11.40;;;0.70;89.30;;;;;;5026708;28;20022;-71
2021/03/20 06:13:30;;;;;;;15.98;10.82;;;0.70;89.30;;;;;;5020871;28;20028;-73
2021/03/20 06:16:19;;;;;;;15.77;11.45;;;0.70;89.30;;;;;;5019426;28;20411;-73
2021/03/20 06:19:22;;;;;;;16.27;10.73;;;0.70;89.40;;;;;;5033333;28;20384;-71
2021/03/20 06:21:59;;;;;;;17.85;10.68;;;0.70;89.20;;;;;;5018263;28;20101;-71
2021/03/20 06:24:43;;;;;;;15.93;11.10;;;0.70;89.00;;;;;;5031278;28;20108;-71
2021/03/20 06:27:14;;;;;;;19.17;11.70;;;0.80;89.20;;;;;;5030099;28;20026;-71
2021/03/20 06:30:03;;;;;;;18.73;11.43;;;0.70;89.80;;;;;;5026324;28;20029;-73
2021/03/20 06:32:40;;;;;;;18.00;11.50;;;0.80;89.10;;;;;;5020946;28;20034;-71
2021/03/20 06:35:32;;;;;;;20.02;12.15;;;0.80;89.20;;;;;;5032306;28;20021;-73
2021/03/20 06:37:59;;;;;;;17.05;11.73;;;0.90;89.00;;;;;;5032922;28;20029;-71
2021/03/20 06:40:48;;;;;;;19.42;12.63;;;0.90;88.80;;;;;;5025738;28;20063;-71
2021/03/20 06:43:16;;;;;;;16.52;11.40;;;0.90;89.20;;;;;;5032411;28;20040;-74
2021/03/20 06:45:42;;;;;;;19.60;12.63;;;1.00;88.70;;;;;;5015402;28;20056;-71
2021/03/20 06:48:13;;;;;;;16.73;12.05;;;1.00;88.50;;;;;;5027101;28;20029;-71
2021/03/20 06:50:47;;;;;;;18.65;13.18;;;1.10;88.00;;;;;;5030430;28;20408;-71
2021/03/20 06:53:15;;;;;;;20.58;12.20;;;1.20;88.00;;;;;;5020436;28;20029;-72
2021/03/20 06:55:44;;;;;;;18.88;13.20;;;1.30;87.60;;;;;;5015060;28;20057;-73
2021/03/20 06:58:21;;;;;;;19.15;13.02;;;1.40;87.20;;;;;;5031901;28;20116;-71
2021/03/20 07:00:47;;;;;;;19.08;12.90;;;1.50;86.50;;;;;;5022647;28;20497;-71
2021/03/20 07:03:49;;;;;;;17.73;13.10;;;1.60;86.40;;;;;;5031828;28;20108;-72
2021/03/20 07:06:37;;;;;;;19.55;11.65;;;1.70;86.10;;;;;;5023591;28;20033;-73
2021/03/20 07:09:07;;;;;;;20.70;13.32;;;1.90;85.10;;;;;;5028973;28;20026;-71
2021/03/20 07:11:35;;;;;;;19.58;13.02;;;1.90;84.70;;;;;;5023764;28;20029;-71
2021/03/20 07:14:32;;;;;;;16.45;12.70;;;2.00;84.70;;;;;;5023449;28;20461;-71
2021/03/20 07:17:00;;;;;;;18.77;12.60;;;2.10;84.30;;;;;;5025846;28;20030;-71
2021/03/20 07:19:26;;;;;;;17.83;13.35;;;2.20;84.10;;;;;;5030828;28;20518;-73
2021/03/20 07:21:57;;;;;;;16.83;13.10;;;2.30;84.20;;;;;;5029483;28;20033;-72
2021/03/20 07:24:44;;;;;;;20.98;13.38;;;2.30;83.60;;;;;;5030741;28;20496;-71
2021/03/20 07:27:12;;;;;;;20.85;12.35;;;2.40;83.20;;;;;;5031478;28;20022;-71
2021/03/20 07:29:39;;;;;;;18.13;13.15;;;2.50;82.80;;;;;;5028559;28;20013;-72
2021/03/20 07:32:05;;;;;;;19.13;13.75;;;2.60;82.60;;;;;;5029939;28;20079;-74
2021/03/20 07:34:33;;;;;;;21.65;13.27;;;2.70;82.70;;;;;;5032157;28;20021;-71
2021/03/20 07:37:24;;;;;;;20.40;13.10;;;3.00;81.80;;;;;;5031234;28;20026;-72
2021/03/20 07:39:58;;;;;;;14.27;10.80;;;5.20;75.30;;;;;;5030789;28;20032;-74
2021/03/20 07:42:40;;;;;;;17.50;11.07;;;8.20;60.90;;;;;;5032001;28;20071;-72
2021/03/20 07:45:09;;;;;;;13.57;10.30;;;10.00;53.80;;;;;;5021230;28;20057;-74
2021/03/20 07:47:41;;;;;;;11.68;10.02;;;11.00;50.20;;;;;;5024653;28;20020;-72
2021/03/20 07:50:18;;;;;;;16.45;12.20;;;9.70;51.80;;;;;;5031552;28;20029;-72
2021/03/20 07:53:04;;;;;;;17.25;12.15;;;7.10;60.90;;;;;;5022182;28;20093;-72
2021/03/20 07:55:57;;;;;;;18.65;13.82;;;5.70;67.30;;;;;;5025026;28;20083;-72
2021/03/20 07:58:27;;;;;;;20.52;13.32;;;5.20;71.50;;;;;;5002874;28;20475;-74
2021/03/20 08:01:00;;;;;;;24.02;13.88;;;5.00;72.60;;;;;;5031926;28;20025;-74
2021/03/20 08:03:29;;;;;;;17.80;12.83;;;4.80;72.90;;;;;;5035306;28;20033;-71
2021/03/20 08:06:26;;;;;;;18.73;14.20;;;5.00;73.40;;;;;;5030664;28;20560;-72
2021/03/20 08:09:10;;;;;;;19.52;13.82;;;5.30;73.50;;;;;;5035664;28;20427;-72
2021/03/20 08:11:36;;;;;;;16.17;12.23;;;7.20;65.90;;;;;;5032029;28;20560;-75
2021/03/20 08:14:15;;;;;;;12.77;11.40;;;10.40;53.90;;;;;;5027736;28;20029;-75
2021/03/20 08:16:42;;;;;;;12.90;11.30;;;12.90;45.70;;;;;;5027626;28;20025;-73
2021/03/20 08:19:13;;;;;;;12.00;10.27;;;13.40;42.80;;;;;;5033908;28;20555;-72
2021/03/20 08:22:09;;;;;;;11.73;10.38;;;14.10;41.30;;;;;;5035161;28;20373;-73
2021/03/20 08:24:42;;;;;;;11.65;10.45;;;14.90;40.20;;;;;;5015922;28;20025;-75
2021/03/20 08:27:27;;;;;;;14.25;10.43;;;15.30;39.20;;;;;;5034633;28;20105;-73
2021/03/20 08:30:04;;;;;;;12.13;10.82;;;14.70;37.90;;;;;;5032326;28;20036;-73
2021/03/20 08:32:47;;;;;;;13.35;11.95;;;11.40;46.60;;;;;;5035087;28;20472;-74
2021/03/20 08:35:32;;;;;;;17.10;12.30;;;9.10;54.10;;;;;;5033543;28;20029;-73
2021/03/20 08:38:15;;;;;;;14.88;10.68;;;10.90;50.90;;;;;;5035172;28;20025;-76
2021/03/20 08:40:55;;;;;;;12.55;10.20;;;13.20;43.50;;;;;;5014575;28;20017;-73
2021/03/20 08:43:44;;;;;;;11.68;10.52;;;14.40;39.60;;;;;;5034485;28;20098;-73
2021/03/20 08:46:21;;;;;;;11.02;9.75;;;15.50;38.30;;;;;;5011164;28;20464;-73
2021/03/20 08:49:27;;;;;;;11.02;9.90;;;16.80;36.60;;;;;;5017935;28;20032;-73
2021/03/20 08:52:00;;;;;;;10.52;9.40;;;17.40;34.50;;;;;;5029132;28;20038;-73
2021/03/20 08:54:44;;;;;;;11.10;10.02;;;17.60;33.90;;;;;;5024746;28;20100;-76
2021/03/20 08:57:25;;;;;;;10.52;9.45;;;17.70;32.90;;;;;;5034011;28;20503;-73
2021/03/20 08:59:54;;;;;;;10.77;9.75;;;17.70;34.00;;;;;;5034677;28;20144;-73
2021/03/20 09:02:23;;;;;;;10.88;9.77;;;18.00;32.50;;;;;;5034421;28;20032;-74
2021/03/20 09:04:51;;;;;;;10.07;9.18;;;18.80;31.60;;;;;;5023979;28;20025;-77
2021/03/20 09:07:22;;;;;;;9.45;8.55;;;18.70;31.00;;;;;;5032478;28;20032;-76
2021/03/20 09:09:54;;;;;;;9.82;8.88;;;18.90;30.20;;;;;;5012051;28;20091;-76
2021/03/20 09:12:37;;;;;;;9.70;8.65;;;18.40;31.60;;;;;;5024397;28;20034;-74
2021/03/20 09:15:24;;;;;;;9.55;8.68;;;18.50;30.80;;;;;;5008868;28;20481;-74
2021/03/20 09:17:52;;;;;;;10.30;9.13;;;19.20;31.30;;;;;;5033005;28;20048;-73
2021/03/20 09:20:24;;;;;;;8.95;7.90;;;19.60;30.30;;;;;;5034220;28;20017;-74
2021/03/20 09:22:51;;;;;;;10.55;8.13;;;19.20;30.00;;;;;;5029948;28;20127;-74
2021/03/20 09:25:34;;;;;;;9.60;8.00;;;19.50;30.00;;;;;;5033693;28;20039;-77
2021/03/20 09:28:12;;;;;;;8.32;7.63;;;19.70;30.10;;;;;;5033869;28;20439;-74
2021/03/20 09:30:45;;;;;;;10.35;7.63;;;20.10;29.70;;;;;;5031934;28;20025;-77
2021/03/20 09:33:19;;;;;;;8.30;7.47;;;20.50;29.00;;;;;;5033201;28;20488;-74
2021/03/20 09:35:54;;;;;;;8.98;7.60;;;19.40;29.40;;;;;;5034175;28;20400;-74
2021/03/20 09:38:35;;;;;;;8.25;7.53;;;19.30;29.90;;;;;;5033900;28;20025;-77
2021/03/20 09:41:06;;;;;;;8.02;7.20;;;20.20;29.10;;;;;;5033717;28;20053;-77
2021/03/20 09:43:44;;;;;;;7.53;6.82;;;20.10;28.90;;;;;;5033142;28;20038;-77
2021/03/20 09:46:45;;;;;;;7.80;7.10;;;20.40;28.60;;;;;;5015789;28;20404;-77
2021/03/20 09:49:11;;;;;;;8.00;6.70;;;20.10;28.60;;;;;;5026645;28;20025;-74
2021/03/20 09:51:56;;;;;;;7.68;6.97;;;19.90;28.30;;;;;;5032352;28;20029;-74
2021/03/20 09:54:25;;;;;;;8.73;7.38;;;19.90;29.00;;;;;;5022237;28;20034;-77
2021/03/20 09:56:51;;;;;;;8.05;7.25;;;20.50;28.70;;;;;;5027935;28;20037;-77
2021/03/20 09:59:43;;;;;;;7.72;6.95;;;20.30;28.30;;;;;;5029506;28;20030;-74
2021/03/20 10:02:21;;;;;;;7.80;6.75;;;20.50;28.50;;;;;;5014697;28;20595;-74
2021/03/20 10:04:58;;;;;;;7.88;7.13;;;19.40;28.50;;;;;;5021123;28;20123;-77
2021/03/20 10:07:24;;;;;;;12.07;7.55;;;19.10;29.10;;;;;;5022620;28;20080;-74
2021/03/20 10:09:56;;;;;;;8.45;7.47;;;18.00;31.20;;;;;;5031384;28;20028;-77
2021/03/20 10:12:30;;;;;;;8.90;7.87;;;17.90;31.20;;;;;;5022735;28;20416;-76
2021/03/20 10:15:05;;;;;;;9.70;8.70;;;16.70;33.30;;;;;;5022222;28;20121;-73
2021/03/20 10:17:33;;;;;;;11.90;9.55;;;15.90;34.90;;;;;;5031348;28;20033;-76
2021/03/20 10:20:19;;;;;;;11.02;9.88;;;14.70;35.80;;;;;;5033173;28;20384;-77
2021/03/20 10:22:55;;;;;;;13.18;9.68;;;13.90;40.40;;;;;;5023051;28;20029;-76
2021/03/20 10:25:22;;;;;;;10.30;9.02;;;13.80;38.80;;;;;;5028025;28;20029;-74
2021/03/20 10:28:00;;;;;;;11.27;9.02;;;13.40;40.40;;;;;;5032670;28;20017;-73
2021/03/20 10:30:29;;;;;;;9.90;8.55;;;13.20;40.80;;;;;;5032932;28;20021;-76
2021/03/20 10:32:57;;;;;;;9.38;8.38;;;13.00;42.20;;;;;;5032636;28;20036;-73
2021/03/20 10:35:23;;;;;;;8.30;7.43;;;12.90;42.00;;;;;;5024871;28;20031;-76
2021/03/20 10:37:49;;;;;;;9.32;8.25;;;12.80;41.40;;;;;;5031516;28;20033;-73
2021/03/20 10:40:23;;;;;;;10.80;8.05;;;13.00;43.70;;;;;;5033005;28;20068;-76
2021/03/20 10:42:52;;;;;;;9.35;7.78;;;12.80;40.60;;;;;;5033023;28;20029;-73
2021/03/20 10:45:33;;;;;;;8.77;7.70;;;12.80;41.70;;;;;;5015832;28;20408;-73
2021/03/20 10:48:02;;;;;;;11.60;8.02;;;12.60;41.20;;;;;;5024207;28;20079;-76
2021/03/20 10:50:35;;;;;;;9.82;7.18;;;12.70;43.70;;;;;;5012255;28;20049;-73
2021/03/20 10:53:05;;;;;;;10.23;6.78;;;12.40;42.70;;;;;;5023763;28;20374;-73
2021/03/20 10:55:43;;;;;;;7.10;6.20;;;12.30;41.70;;;;;;5025754;28;20049;-76
2021/03/20 10:58:15;;;;;;;9.43;6.30;;;12.20;41.20;;;;;;5032192;28;20021;-73
2021/03/20 11:00:47;;;;;;;14.25;7.93;;;12.30;43.20;;;;;;5032729;28;20439;-76
2021/03/20 11:03:27;;;;;;;9.50;6.70;;;12.40;44.80;;;;;;5027143;28;20517;-73
2021/03/20 11:05:53;;;;;;;9.98;6.50;;;12.50;41.70;;;;;;5025080;28;20056;-75
2021/03/20 11:08:19;;;;;;;7.35;6.55;;;12.50;43.00;;;;;;5026072;28;20025;-73
2021/03/20 11:10:50;;;;;;;7.20;6.45;;;12.50;42.40;;;;;;5029299;28;20026;-73
2021/03/20 11:13:15;;;;;;;8.60;6.30;;;12.80;43.50;;;;;;5028072;28;20088;-75
2021/03/20 11:15:43;;;;;;;7.00;5.85;;;12.80;41.70;;;;;;5017633;28;20488;-75
2021/03/20 11:18:16;;;;;;;6.80;6.13;;;12.60;42.00;;;;;;5030291;28;20029;-73
2021/03/20 11:20:44;;;;;;;9.65;6.68;;;12.70;42.70;;;;;;5032391;28;20018;-73
2021/03/20 11:23:29;;;;;;;7.97;7.18;;;12.80;41.80;;;;;;5027413;28;20099;-74
2021/03/20 11:25:55;;;;;;;9.70;6.95;;;12.80;43.10;;;;;;5028423;28;20065;-75
2021/03/20 11:28:36;;;;;;;10.48;6.78;;;12.70;42.80;;;;;;5030482;28;20032;-75
2021/03/20 11:31:03;;;;;;;7.60;6.45;;;12.70;42.10;;;;;;5012533;28;20511;-73
2021/03/20 11:33:33;;;;;;;8.85;6.65;;;12.80;42.90;;;;;;5031906;28;20033;-73
2021/03/20 11:36:03;;;;;;;9.75;6.90;;;12.90;42.50;;;;;;5032295;28;20072;-72
2021/03/20 11:38:32;;;;;;;8.40;6.20;;;12.80;43.00;;;;;;5036111;28;20116;-75
2021/03/20 11:41:01;;;;;;;7.32;5.85;;;12.80;44.30;;;;;;5036293;28;20100;-75
2021/03/20 11:43:38;;;;;;;6.65;5.55;;;13.10;43.80;;;;;;5035820;28;20092;-73
2021/03/20 11:46:12;;;;;;;6.38;5.25;;;13.20;41.20;;;;;;5017798;28;20504;-75
2021/03/20 11:48:53;;;;;;;6.40;5.32;;;13.10;41.80;;;;;;5032888;28;20065;-72
2021/03/20 11:51:31;;;;;;;5.13;4.63;;;12.80;44.60;;;;;;5035868;28;20052;-74
2021/03/20 11:54:03;;;;;;;6.53;5.03;;;12.60;42.40;;;;;;5023281;28;20096;-75
2021/03/20 11:56:33;;;;;;;8.35;4.70;;;12.70;42.50;;;;;;5033550;28;20032;-73
2021/03/20 11:59:02;;;;;;;5.75;4.53;;;12.60;41.80;;;;;;5034634;28;20116;-73
2021/03/20 12:01:33;;;;;;;6.07;4.30;;;12.60;41.80;;;;;;5034593;28;20027;-73
2021/03/20 12:04:11;;;;;;;4.32;3.15;;;12.50;42.30;;;;;;5023002;28;20480;-73
2021/03/20 12:06:38;;;;;;;5.22;3.60;;;12.80;40.70;;;;;;5022390;28;20092;-75
2021/03/20 12:09:28;;;;;;;7.97;4.20;;;13.00;42.10;;;;;;5034668;28;20036;-72
2021/03/20 12:11:55;;;;;;;3.92;3.50;;;13.00;41.00;;;;;;5020579;28;20029;-74
2021/03/20 12:14:33;;;;;;;3.90;3.50;;;13.00;39.50;;;;;;5025631;28;20030;-73
2021/03/20 12:17:03;;;;;;;4.70;4.13;;;12.80;39.30;;;;;;5029113;28;20080;-71
2021/03/20 12:19:29;;;;;;;4.60;3.75;;;12.70;40.50;;;;;;5035494;28;20029;-74
2021/03/20 12:22:07;;;;;;;5.78;3.60;;;12.90;40.00;;;;;;5032163;28;20060;-75
2021/03/20 12:24:45;;;;;;;9.57;4.07;;;13.20;41.50;;;;;;5014499;28;20034;-73
2021/03/20 12:27:37;;;;;;;10.15;4.30;;;13.60;43.50;;;;;;5034528;28;20091;-75
2021/03/20 12:30:14;;;;;;;7.35;3.88;;;13.50;41.40;;;;;;5035363;28;20032;-73
2021/03/20 12:32:47;;;;;;;5.25;4.45;;;13.20;41.00;;;;;;5035029;28;20546;-75
2021/03/20 12:35:21;;;;;;;5.28;3.92;;;13.10;40.60;;;;;;5033772;28;20091;-73
2021/03/20 12:38:15;;;;;;;5.40;3.65;;;13.20;41.40;;;;;;5035144;28;20018;-72
2021/03/20 12:40:48;;;;;;;7.45;4.13;;;13.30;41.90;;;;;;5013703;28;20025;-75
2021/03/20 12:43:19;;;;;;;7.03;4.57;;;13.60;41.60;;;;;;5022068;28;20030;-74
2021/03/20 12:45:44;;;;;;;7.50;3.90;;;13.60;40.30;;;;;;5015226;28;20052;-74
2021/03/20 12:48:15;;;;;;;5.07;3.70;;;13.60;40.30;;;;;;5029092;28;20034;-73
2021/03/20 12:50:41;;;;;;;4.18;3.50;;;13.40;40.70;;;;;;5032088;28;20463;-73
2021/03/20 12:53:07;;;;;;;7.35;3.88;;;13.30;39.10;;;;;;5026042;28;20165;-73
2021/03/20 12:55:33;;;;;;;4.85;4.18;;;13.50;41.60;;;;;;5044842;28;20026;-72
2021/03/20 12:57:59;;;;;;;7.32;3.97;;;13.40;40.20;;;;;;5034223;28;20025;-75
2021/03/20 13:00:25;;;;;;;4.95;3.83;;;13.60;40.30;;;;;;5034763;28;20544;-73
2021/03/20 13:02:50;;;;;;;6.13;4.20;;;13.80;39.20;;;;;;5032343;28;20052;-75
2021/03/20 13:05:30;;;;;;;5.50;3.95;;;13.80;38.30;;;;;;5025596;28;20036;-73
2021/03/20 13:07:56;;;;;;;4.82;4.05;;;13.80;39.70;;;;;;5029802;28;20018;-73
2021/03/20 13:10:22;;;;;;;4.78;3.90;;;13.90;40.50;;;;;;5033115;28;20083;-75
2021/03/20 13:12:48;;;;;;;6.78;4.50;;;14.00;40.60;;;;;;5028169;28;20105;-74
2021/03/20 13:15:15;;;;;;;7.85;4.30;;;13.90;40.00;;;;;;5021454;28;20061;-74
2021/03/20 13:17:40;;;;;;;5.43;4.38;;;13.70;42.00;;;;;;5030141;28;20026;-74